createdAt,value
2023-03-04T00:00:31.782Z,42.97
2023-03-04T00:02:59.103Z,40.53
2023-03-04T00:05:26.334Z,40.53
2023-03-04T00:07:53.430Z,53.92
2023-03-04T00:10:20.524Z,51.60
2023-03-04T00:12:47.589Z,46.75
2023-03-04T00:15:14.708Z,42.53
2023-03-04T00:17:41.771Z,42.90
2023-03-04T00:20:09.692Z,43.80
2023-03-04T00:22:36.748Z,46.10
2023-03-04T00:25:04.199Z,40.58
2023-03-04T00:27:31.240Z,42.40
2023-03-04T00:29:58.376Z,41.75
2023-03-04T00:32:25.565Z,43.70
2023-03-04T00:34:52.721Z,42.55
2023-03-04T00:37:19.794Z,45.15
2023-03-04T00:39:46.846Z,45.88
2023-03-04T00:42:13.907Z,52.05
2023-03-04T00:44:40.988Z,47.28
2023-03-04T00:47:08.280Z,51.80
2023-03-04T00:49:35.447Z,56.78
2023-03-04T00:52:02.779Z,56.63
2023-03-04T00:54:29.965Z,61.17
2023-03-04T00:56:57.040Z,65.22
2023-03-04T00:59:24.172Z,62.53
2023-03-04T01:01:51.257Z,68.47
2023-03-04T01:04:18.476Z,65.93
2023-03-04T01:06:45.572Z,63.38
2023-03-04T01:09:12.599Z,65.80
2023-03-04T01:11:39.729Z,60.92
2023-03-04T01:14:06.980Z,56.10
2023-03-04T01:16:34.818Z,60.55
2023-03-04T01:19:01.897Z,67.18
2023-03-04T01:21:30.670Z,62.78
2023-03-04T01:23:57.756Z,61.03
2023-03-04T01:26:24.847Z,61.70
2023-03-04T01:28:52.734Z,58.45
2023-03-04T01:31:19.855Z,60.33
2023-03-04T01:33:46.941Z,59.10
2023-03-04T01:36:14.011Z,56.55
2023-03-04T01:38:41.156Z,53.42
2023-03-04T01:41:08.729Z,56.92
2023-03-04T01:43:37.491Z,54.88
2023-03-04T01:46:05.388Z,49.08
2023-03-04T01:48:37.324Z,50.05
2023-03-04T01:51:06.586Z,52.22
2023-03-04T01:53:34.029Z,50.05
2023-03-04T01:56:11.206Z,53.15
2023-03-04T01:58:38.465Z,51.13
2023-03-04T02:01:05.585Z,51.00
2023-03-04T02:03:32.757Z,50.92
2023-03-04T02:05:59.971Z,51.85
2023-03-04T02:08:27.215Z,44.72
2023-03-04T02:10:54.974Z,45.13
2023-03-04T02:13:22.449Z,48.78
2023-03-04T02:15:50.018Z,43.03
2023-03-04T02:18:23.872Z,43.33
2023-03-04T02:21:21.125Z,43.65
2023-03-04T02:24:15.592Z,37.63
2023-03-04T02:26:43.910Z,43.60
2023-03-04T02:29:14.786Z,46.25
2023-03-04T02:31:48.236Z,46.92
2023-03-04T02:34:17.450Z,40.45
2023-03-04T02:36:46.716Z,39.80
2023-03-04T02:39:21.062Z,42.40
2023-03-04T02:41:51.307Z,43.15
2023-03-04T02:44:23.333Z,40.92
2023-03-04T02:46:52.037Z,45.17
2023-03-04T02:49:20.436Z,45.53
2023-03-04T02:51:50.548Z,41.60
2023-03-04T02:54:19.722Z,41.13
2023-03-04T02:56:55.432Z,41.38
2023-03-04T02:59:24.228Z,43.58
2023-03-04T03:01:52.459Z,39.22
2023-03-04T03:04:20.980Z,43.17
2023-03-04T03:06:49.700Z,47.58
2023-03-04T03:09:17.446Z,42.72
2023-03-04T03:11:44.690Z,45.63
2023-03-04T03:14:11.832Z,47.83
2023-03-04T03:16:39.277Z,41.17
2023-03-04T03:19:06.745Z,42.25
2023-03-04T03:21:34.855Z,38.50
2023-03-04T03:24:01.969Z,37.95
2023-03-04T03:26:29.499Z,42.75
2023-03-04T03:28:56.595Z,37.10
2023-03-04T03:31:23.669Z,40.10
2023-03-04T03:33:50.764Z,38.85
2023-03-04T03:36:17.910Z,44.90
2023-03-04T03:38:45.060Z,44.53
2023-03-04T03:41:12.168Z,39.67
2023-03-04T03:43:39.245Z,41.92
2023-03-04T03:46:06.482Z,45.15
2023-03-04T03:48:33.524Z,47.63
2023-03-04T03:51:00.643Z,47.50
2023-03-04T03:53:27.720Z,42.30
2023-03-04T03:55:54.767Z,38.80
2023-03-04T03:58:21.942Z,43.97
2023-03-04T04:00:49.276Z,44.95
2023-03-04T04:03:17.578Z,46.42
2023-03-04T04:05:44.653Z,40.38
2023-03-04T04:08:14.453Z,47.80
2023-03-04T04:10:42.497Z,48.35
2023-03-04T04:13:10.066Z,46.88
2023-03-04T04:15:38.857Z,44.40
2023-03-04T04:18:07.371Z,46.85
2023-03-04T04:20:35.375Z,44.72
2023-03-04T04:23:03.610Z,43.92
2023-03-04T04:25:30.811Z,50.90
2023-03-04T04:27:57.926Z,50.80
2023-03-04T04:30:25.173Z,54.28
2023-03-04T04:32:52.250Z,58.95
2023-03-04T04:35:19.589Z,47.10
2023-03-04T04:37:46.985Z,51.88
2023-03-04T04:40:14.297Z,54.33
2023-03-04T04:42:41.535Z,56.03
2023-03-04T04:45:09.200Z,50.83
2023-03-04T04:47:36.280Z,55.97
2023-03-04T04:50:03.608Z,49.47
2023-03-04T04:52:30.777Z,57.45
2023-03-04T04:54:57.842Z,54.67
2023-03-04T04:57:25.112Z,46.67
2023-03-04T04:59:52.320Z,53.67
2023-03-04T05:02:19.434Z,52.80
2023-03-04T05:04:46.727Z,59.65
2023-03-04T05:07:13.826Z,57.03
2023-03-04T05:09:40.870Z,57.45
2023-03-04T05:12:08.042Z,47.08
2023-03-04T05:14:35.093Z,41.28
2023-03-04T05:17:02.143Z,43.20
2023-03-04T05:19:29.287Z,45.50
2023-03-04T05:21:56.334Z,39.55
2023-03-04T05:24:23.412Z,43.35
2023-03-04T05:26:50.510Z,44.67
2023-03-04T05:29:17.571Z,39.58
2023-03-04T05:31:45.035Z,43.38
2023-03-04T05:34:12.224Z,36.28
2023-03-04T05:36:39.400Z,40.92
2023-03-04T05:39:06.553Z,38.53
2023-03-04T05:41:33.570Z,44.67
2023-03-04T05:44:01.344Z,52.55
2023-03-04T05:46:28.472Z,53.33
2023-03-04T05:48:55.551Z,62.05
2023-03-04T05:51:23.809Z,71.10
2023-03-04T05:53:50.922Z,68.30
2023-03-04T05:56:20.175Z,72.82
2023-03-04T05:58:50.155Z,70.65
2023-03-04T06:01:18.940Z,72.90
2023-03-04T06:03:48.670Z,80.10
2023-03-04T06:06:16.193Z,71.95
2023-03-04T06:08:43.359Z,82.60
2023-03-04T06:11:10.626Z,69.72
2023-03-04T06:13:38.372Z,79.43
2023-03-04T06:16:05.819Z,64.55
2023-03-04T06:18:33.007Z,64.82
2023-03-04T06:21:01.941Z,69.85
2023-03-04T06:23:30.468Z,61.85
2023-03-04T06:25:59.277Z,68.78
2023-03-04T06:28:26.370Z,71.15
2023-03-04T06:30:54.702Z,74.50
2023-03-04T06:33:22.655Z,76.13
2023-03-04T06:35:53.660Z,76.93
2023-03-04T06:38:20.750Z,77.85
2023-03-04T06:40:47.806Z,74.72
2023-03-04T06:43:14.972Z,81.47
2023-03-04T06:45:42.230Z,87.10
2023-03-04T06:48:09.457Z,72.60
2023-03-04T06:50:36.578Z,74.97
2023-03-04T06:53:03.716Z,61.22
2023-03-04T06:55:30.804Z,60.67
2023-03-04T06:57:57.952Z,56.45
2023-03-04T07:00:25.226Z,55.03
2023-03-04T07:02:54.986Z,46.63
2023-03-04T07:05:22.289Z,54.65
2023-03-04T07:07:49.921Z,51.90
2023-03-04T07:10:20.300Z,53.78
2023-03-04T07:12:47.589Z,52.13
2023-03-04T07:15:14.714Z,51.08
2023-03-04T07:17:41.783Z,52.03
2023-03-04T07:20:09.684Z,51.75
2023-03-04T07:22:36.794Z,54.05
2023-03-04T07:25:04.984Z,49.63
2023-03-04T07:27:32.108Z,50.90
2023-03-04T07:29:59.187Z,51.03
2023-03-04T07:32:26.440Z,48.38
2023-03-04T07:34:53.530Z,52.42
2023-03-04T07:37:20.593Z,43.28
2023-03-04T07:39:47.655Z,40.35
2023-03-04T07:42:14.780Z,40.45
2023-03-04T07:44:44.411Z,40.97
2023-03-04T07:47:11.461Z,40.20
2023-03-04T07:49:38.549Z,35.40
2023-03-04T07:52:06.344Z,38.47
2023-03-04T07:54:33.431Z,39.63
2023-03-04T07:57:00.528Z,35.13
2023-03-04T07:59:27.684Z,34.47
2023-03-04T08:01:54.787Z,34.65
2023-03-04T08:04:21.966Z,37.03
2023-03-04T08:06:49.275Z,36.20
2023-03-04T08:09:16.445Z,32.28
2023-03-04T08:11:44.105Z,27.83
2023-03-04T08:14:13.954Z,29.88
2023-03-04T08:16:41.763Z,27.60
2023-03-04T08:19:09.116Z,25.80
2023-03-04T08:21:37.987Z,27.67
2023-03-04T08:24:09.312Z,27.33
2023-03-04T08:26:42.793Z,25.25
2023-03-04T08:29:13.345Z,24.40
2023-03-04T08:31:40.869Z,20.40
2023-03-04T08:34:10.624Z,21.95
2023-03-04T08:36:37.728Z,20.23
2023-03-04T08:39:06.054Z,27.13
2023-03-04T08:41:33.445Z,20.25
2023-03-04T08:44:01.285Z,23.80
2023-03-04T08:46:29.007Z,22.90
2023-03-04T08:48:56.138Z,21.17
2023-03-04T08:51:23.849Z,21.48
2023-03-04T08:53:51.005Z,23.90
2023-03-04T08:56:18.271Z,24.77
2023-03-04T08:58:45.480Z,27.35
2023-03-04T09:01:14.161Z,21.10
2023-03-04T09:03:42.017Z,24.65
2023-03-04T09:06:10.104Z,21.13
2023-03-04T09:08:37.385Z,19.80
2023-03-04T09:11:04.694Z,24.98
2023-03-04T09:13:32.295Z,24.48
2023-03-04T09:16:00.119Z,24.23
2023-03-04T09:18:28.910Z,26.23
2023-03-04T09:20:55.972Z,23.58
2023-03-04T09:23:23.267Z,25.17
2023-03-04T09:25:50.546Z,25.92
2023-03-04T09:28:18.911Z,21.17
2023-03-04T09:30:46.038Z,21.23
2023-03-04T09:33:14.520Z,17.92
2023-03-04T09:35:42.226Z,17.90
2023-03-04T09:38:09.380Z,17.02
2023-03-04T09:40:44.613Z,16.90
2023-03-04T09:43:38.476Z,14.93
2023-03-04T09:46:10.700Z,11.23
2023-03-04T09:48:49.190Z,14.20
2023-03-04T09:51:20.001Z,11.98
2023-03-04T09:53:57.168Z,15.35
2023-03-04T09:56:26.164Z,12.50
2023-03-04T09:59:08.042Z,10.90
2023-03-04T10:01:57.902Z,8.95
2023-03-04T10:04:52.246Z,13.50
2023-03-04T10:07:24.465Z,11.32
2023-03-04T10:10:16.174Z,9.95
2023-03-04T10:12:48.421Z,11.10
2023-03-04T10:15:27.512Z,11.88
2023-03-04T10:18:07.067Z,14.13
2023-03-04T10:21:04.596Z,16.02
2023-03-04T10:23:34.055Z,21.00
2023-03-04T10:26:15.988Z,22.60
2023-03-04T10:28:43.868Z,22.05
2023-03-04T10:31:36.875Z,22.63
2023-03-04T10:34:05.200Z,18.88
2023-03-04T10:36:32.232Z,18.55
2023-03-04T10:39:07.984Z,18.70
2023-03-04T10:41:35.245Z,20.23
2023-03-04T10:44:14.578Z,12.48
2023-03-04T10:46:43.978Z,15.25
2023-03-04T10:49:12.754Z,14.07
2023-03-04T10:51:46.989Z,16.05
2023-03-04T10:54:17.280Z,17.08
2023-03-04T10:56:55.065Z,15.32
2023-03-04T10:59:40.652Z,13.68
2023-03-04T11:02:23.064Z,13.73
2023-03-04T11:04:53.706Z,11.85
2023-03-04T11:07:22.518Z,11.07
2023-03-04T11:09:49.932Z,15.15
2023-03-04T11:12:20.637Z,14.30
2023-03-04T11:14:50.745Z,13.55
2023-03-04T11:17:43.596Z,14.82
2023-03-04T11:20:34.001Z,14.27
2023-03-04T11:23:06.480Z,11.27
2023-03-04T11:25:37.017Z,11.85
2023-03-04T11:28:21.257Z,17.40
2023-03-04T11:31:01.342Z,12.07
2023-03-04T11:33:44.700Z,12.45
2023-03-04T11:36:35.392Z,14.40
2023-03-04T11:39:10.032Z,10.65
2023-03-04T11:41:40.758Z,12.10
2023-03-04T11:44:09.222Z,9.23
2023-03-04T11:46:55.090Z,12.77
2023-03-04T11:50:08.773Z,17.42
2023-03-04T11:52:52.003Z,11.93
2023-03-04T11:55:33.322Z,13.70
2023-03-04T11:58:11.764Z,11.63
2023-03-04T12:01:05.124Z,9.13
2023-03-04T12:04:03.028Z,11.65
2023-03-04T12:06:48.765Z,10.23
2023-03-04T12:09:26.437Z,10.88
2023-03-04T12:12:02.085Z,10.65
2023-03-04T12:14:51.184Z,11.48
2023-03-04T12:17:42.740Z,13.38
2023-03-04T12:20:46.621Z,10.48
2023-03-04T12:23:30.525Z,11.68
2023-03-04T12:26:07.678Z,10.32
2023-03-04T12:29:03.857Z,12.10
2023-03-04T12:31:36.323Z,8.93
2023-03-04T12:34:22.045Z,13.15
2023-03-04T12:37:21.046Z,9.77
2023-03-04T12:40:00.237Z,11.63
2023-03-04T12:42:41.294Z,13.32
2023-03-04T12:45:41.194Z,12.05
2023-03-04T12:48:38.788Z,9.43
2023-03-04T12:51:35.740Z,9.85
2023-03-04T12:54:30.966Z,7.53
2023-03-04T12:57:03.084Z,9.00
2023-03-04T12:59:36.861Z,8.27
2023-03-04T13:02:41.186Z,7.60
2023-03-04T13:05:26.611Z,10.32
2023-03-04T13:08:04.393Z,6.90
2023-03-04T13:10:31.777Z,10.10
2023-03-04T13:13:00.822Z,13.27
2023-03-04T13:15:34.534Z,11.18
2023-03-04T13:18:19.612Z,8.77
2023-03-04T13:20:47.005Z,8.60
2023-03-04T13:23:14.011Z,12.20
2023-03-04T13:25:44.419Z,8.88
2023-03-04T13:28:11.566Z,8.25
2023-03-04T13:30:38.625Z,9.35
2023-03-04T13:33:08.738Z,9.63
2023-03-04T13:35:48.118Z,7.78
2023-03-04T13:38:28.443Z,7.10
2023-03-04T13:41:14.872Z,9.98
2023-03-04T13:43:43.350Z,7.53
2023-03-04T13:46:23.983Z,12.15
2023-03-04T13:48:51.269Z,8.73
2023-03-04T13:51:28.944Z,7.40
2023-03-04T13:54:19.876Z,7.18
2023-03-04T13:56:50.296Z,6.55
2023-03-04T13:59:30.467Z,19.08
2023-03-04T14:02:04.190Z,9.57
2023-03-04T14:04:37.157Z,12.85
2023-03-04T14:07:19.806Z,13.32
2023-03-04T14:10:05.264Z,12.48
2023-03-04T14:15:19.523Z,11.00
2023-03-04T14:17:52.210Z,13.65
2023-03-04T14:20:37.568Z,13.18
2023-03-04T14:23:26.244Z,13.35
2023-03-04T14:26:14.154Z,12.98
2023-03-04T14:28:50.288Z,9.45
2023-03-04T14:31:22.912Z,9.07
2023-03-04T14:34:02.203Z,9.35
2023-03-04T14:36:37.310Z,8.48
2023-03-04T14:39:06.949Z,9.15
2023-03-04T14:41:39.577Z,8.02
2023-03-04T14:44:28.012Z,13.68
2023-03-04T14:47:08.298Z,17.95
2023-03-04T14:49:38.505Z,27.15
2023-03-04T14:52:06.670Z,23.88
2023-03-04T14:54:33.786Z,27.50
2023-03-04T14:57:21.220Z,31.60
2023-03-04T14:59:48.448Z,37.38
2023-03-04T15:02:35.707Z,22.52
2023-03-04T15:05:17.886Z,27.95
2023-03-04T15:08:03.697Z,23.45
2023-03-04T15:10:39.548Z,27.92
2023-03-04T15:13:09.692Z,22.65
2023-03-04T15:15:46.171Z,24.13
2023-03-04T15:18:24.040Z,29.95
2023-03-04T15:20:57.014Z,34.00
2023-03-04T15:23:24.449Z,26.10
2023-03-04T15:25:54.593Z,23.73
2023-03-04T15:28:22.767Z,23.95
2023-03-04T15:30:50.130Z,20.17
2023-03-04T15:33:19.296Z,26.05
2023-03-04T15:35:53.859Z,25.25
2023-03-04T15:38:21.398Z,23.58
2023-03-04T15:40:48.929Z,26.60
2023-03-04T15:43:19.133Z,25.20
2023-03-04T15:45:47.069Z,25.35
2023-03-04T15:48:16.592Z,23.17
2023-03-04T15:50:45.974Z,27.05
2023-03-04T15:53:39.705Z,18.40
2023-03-04T15:56:13.980Z,32.25
2023-03-04T15:58:41.405Z,20.45
2023-03-04T16:01:14.984Z,24.88
2023-03-04T16:03:42.408Z,22.15
2023-03-04T16:06:14.664Z,26.98
2023-03-04T16:08:42.852Z,20.33
2023-03-04T16:11:32.790Z,23.85
2023-03-04T16:13:59.828Z,22.55
2023-03-04T16:16:26.879Z,22.27
2023-03-04T16:18:54.196Z,30.08
2023-03-04T16:21:23.444Z,25.35
2023-03-04T16:23:52.040Z,29.00
2023-03-04T16:26:21.395Z,26.05
2023-03-04T16:28:49.189Z,21.77
2023-03-04T16:31:17.475Z,20.77
2023-03-04T16:33:45.253Z,29.65
2023-03-04T16:36:14.804Z,37.67
2023-03-04T16:38:43.428Z,28.58
2023-03-04T16:41:15.928Z,32.83
2023-03-04T16:43:44.121Z,37.25
2023-03-04T16:46:12.860Z,34.97
2023-03-04T16:48:40.272Z,32.25
2023-03-04T16:51:15.253Z,29.73
2023-03-04T16:53:48.096Z,32.00
2023-03-04T16:56:19.489Z,27.98
2023-03-04T16:58:47.491Z,27.38
2023-03-04T17:01:24.545Z,30.40
2023-03-04T17:03:52.156Z,32.10
2023-03-04T17:06:21.020Z,29.27
2023-03-04T17:08:48.810Z,28.40
2023-03-04T17:11:23.661Z,32.90
2023-03-04T17:13:51.705Z,32.80
2023-03-04T17:16:19.281Z,29.45
2023-03-04T17:18:46.700Z,35.55
2023-03-04T17:21:16.866Z,28.95
2023-03-04T17:23:44.499Z,33.70
2023-03-04T17:26:11.971Z,33.92
2023-03-04T17:28:39.251Z,34.97
2023-03-04T17:31:10.834Z,35.83
2023-03-04T17:33:37.947Z,42.10
2023-03-04T17:36:05.649Z,42.92
2023-03-04T17:38:33.617Z,34.92
2023-03-04T17:41:10.447Z,34.75
2023-03-04T17:43:37.591Z,52.70
2023-03-04T17:46:07.393Z,43.20
2023-03-04T17:48:35.053Z,34.38
2023-03-04T17:51:02.813Z,41.95
2023-03-04T17:53:30.046Z,34.58
2023-03-04T17:56:03.207Z,33.47
2023-03-04T17:58:32.369Z,33.55
2023-03-04T18:01:22.980Z,41.70
2023-03-04T18:03:50.854Z,38.30
2023-03-04T18:06:18.569Z,36.10
2023-03-04T18:08:46.136Z,38.80
2023-03-04T18:11:13.330Z,32.72
2023-03-04T18:13:41.757Z,39.00
2023-03-04T18:16:09.823Z,37.88
2023-03-04T18:18:37.036Z,35.30
2023-03-04T18:21:05.034Z,37.55
2023-03-04T18:23:32.472Z,33.92
2023-03-04T18:25:59.686Z,38.40
2023-03-04T18:28:26.785Z,38.80
2023-03-04T18:30:54.674Z,35.00
2023-03-04T18:33:22.185Z,42.08
2023-03-04T18:35:49.566Z,37.25
2023-03-04T18:38:16.859Z,28.60
2023-03-04T18:40:44.621Z,27.00
2023-03-04T18:43:12.203Z,29.52
2023-03-04T18:45:39.388Z,37.58
2023-03-04T18:48:06.713Z,35.25
2023-03-04T18:50:33.797Z,35.35
2023-03-04T18:53:00.889Z,30.10
2023-03-04T18:55:28.420Z,33.38
2023-03-04T18:57:59.195Z,30.02
2023-03-04T19:00:26.451Z,29.90
2023-03-04T19:03:04.423Z,34.75
2023-03-04T19:05:33.346Z,29.13
2023-03-04T19:08:00.684Z,26.40
2023-03-04T19:10:29.166Z,25.67
2023-03-04T19:12:57.655Z,26.80
2023-03-04T19:15:24.810Z,31.50
2023-03-04T19:17:52.212Z,35.38
2023-03-04T19:20:19.481Z,35.85
2023-03-04T19:22:46.621Z,33.45
2023-03-04T19:25:14.429Z,30.25
2023-03-04T19:27:41.524Z,31.58
2023-03-04T19:30:09.519Z,26.17
2023-03-04T19:32:36.735Z,32.67
2023-03-04T19:35:03.934Z,31.60
2023-03-04T19:37:31.194Z,31.73
2023-03-04T19:39:58.293Z,31.85
2023-03-04T19:42:25.442Z,31.38
2023-03-04T19:44:52.713Z,30.17
2023-03-04T19:47:19.906Z,29.88
2023-03-04T19:49:47.105Z,31.08
2023-03-04T19:52:14.169Z,29.10
2023-03-04T19:54:41.436Z,32.70
2023-03-04T19:57:08.521Z,40.85
2023-03-04T19:59:36.264Z,30.38
2023-03-04T20:02:03.812Z,36.35
2023-03-04T20:04:30.952Z,31.85
2023-03-04T20:06:58.292Z,28.95
2023-03-04T20:09:25.520Z,38.03
2023-03-04T20:11:58.795Z,28.67
2023-03-04T20:14:27.458Z,32.05
2023-03-04T20:16:55.489Z,30.33
2023-03-04T20:19:22.567Z,29.00
2023-03-04T20:21:49.699Z,33.28
2023-03-04T20:24:19.182Z,35.03
2023-03-04T20:26:46.461Z,35.03
2023-03-04T20:29:13.768Z,37.65
2023-03-04T20:31:40.878Z,30.30
2023-03-04T20:34:08.956Z,33.67
2023-03-04T20:36:38.590Z,36.00
2023-03-04T20:39:18.332Z,32.35
2023-03-04T20:41:52.833Z,37.67
2023-03-04T20:44:19.981Z,31.70
2023-03-04T20:46:47.103Z,47.53
2023-03-04T20:49:16.295Z,37.95
2023-03-04T20:51:43.439Z,40.90
2023-03-04T20:54:10.534Z,39.97
2023-03-04T20:56:38.146Z,43.40
2023-03-04T20:59:08.900Z,44.88
2023-03-04T21:01:38.052Z,35.50
2023-03-04T21:04:05.715Z,36.35
2023-03-04T21:06:33.079Z,34.80
2023-03-04T21:09:02.827Z,43.55
2023-03-04T21:11:30.040Z,47.50
2023-03-04T21:13:57.922Z,37.60
2023-03-04T21:16:28.149Z,46.28
2023-03-04T21:18:56.152Z,40.28
2023-03-04T21:21:26.896Z,34.55
2023-03-04T21:23:55.389Z,44.50
2023-03-04T21:26:23.577Z,46.33
2023-03-04T21:28:52.311Z,37.80
2023-03-04T21:31:30.139Z,45.33
2023-03-04T21:34:00.584Z,30.65
2023-03-04T21:36:27.834Z,36.70
2023-03-04T21:38:54.910Z,38.13
2023-03-04T21:41:24.212Z,44.95
2023-03-04T21:43:51.990Z,54.03
2023-03-04T21:46:19.390Z,65.90
2023-03-04T21:48:47.939Z,62.10
2023-03-04T21:51:16.842Z,66.18
2023-03-04T21:53:44.325Z,64.93
2023-03-04T21:56:12.508Z,62.17
2023-03-04T21:58:42.351Z,57.50
2023-03-04T22:01:14.065Z,54.50
2023-03-04T22:03:41.316Z,59.00
2023-03-04T22:06:10.386Z,51.20
2023-03-04T22:08:38.583Z,59.83
2023-03-04T22:11:07.754Z,54.45
2023-03-04T22:13:35.187Z,58.83
2023-03-04T22:16:02.598Z,59.97
2023-03-04T22:18:30.119Z,59.67
2023-03-04T22:21:07.031Z,58.10
2023-03-04T22:23:34.603Z,63.03
2023-03-04T22:26:16.369Z,58.90
2023-03-04T22:28:44.272Z,55.88
2023-03-04T22:31:30.436Z,52.55
2023-03-04T22:33:59.341Z,51.45
2023-03-04T22:36:28.538Z,51.78
2023-03-04T22:38:55.650Z,46.53
2023-03-04T22:41:23.531Z,57.28
2023-03-04T22:43:51.357Z,45.58
2023-03-04T22:46:23.429Z,51.92
2023-03-04T22:48:54.739Z,45.90
2023-03-04T22:51:22.045Z,49.58
2023-03-04T22:53:50.143Z,53.15
2023-03-04T22:56:17.551Z,53.67
2023-03-04T22:58:45.906Z,59.00
2023-03-04T23:01:14.746Z,51.85
2023-03-04T23:03:44.157Z,48.75
2023-03-04T23:06:20.269Z,50.72
2023-03-04T23:08:49.697Z,49.97
2023-03-04T23:11:26.607Z,53.67
2023-03-04T23:13:54.460Z,54.25
2023-03-04T23:16:24.144Z,46.13
2023-03-04T23:18:52.081Z,46.35
2023-03-04T23:21:22.798Z,45.22
2023-03-04T23:23:51.316Z,41.45
2023-03-04T23:26:27.234Z,56.00
2023-03-04T23:28:57.184Z,48.03
2023-03-04T23:31:25.716Z,53.30
2023-03-04T23:33:57.370Z,56.75
2023-03-04T23:36:28.034Z,56.17
2023-03-04T23:38:56.142Z,48.88
2023-03-04T23:41:26.040Z,48.83
2023-03-04T23:43:55.420Z,56.42
2023-03-04T23:46:23.603Z,56.50
2023-03-04T23:48:50.760Z,51.38
2023-03-04T23:51:24.083Z,55.80
2023-03-04T23:53:51.576Z,60.00
2023-03-04T23:56:30.892Z,52.22
2023-03-04T23:58:59.611Z,62.22
